KMWA/MWA METAR and TAF weather

Enter ICAO airport designator
Station Type Date Time Source
KMWA METAR 2019/07/17 17:45 UTC NOAA

KMWA 171745Z 25010KT 10SM SCT031 BKN048 31/24 A3001


Station Type Date Time Source
KMWA Decoded METAR 2019/07/17 17:45 UTC NOAA

Marion, Williamson County Regional Airport, IL, United States (KMWA) 37-45-01N 089-00-04W
Jul 17, 2019 - 01:45 PM EDT / 2019.07.17 1745 UTC
Wind: from the WSW (250 degrees) at 12 MPH (10 KT):0
Visibility: 10 mile(s):0
Sky conditions: mostly cloudy
Temperature: 87 F (31 C)
Heat index: 95.7 F (35.4 C):1
Dew Point: 75 F (24 C)
Relative Humidity: 66%
Pressure (altimeter): 30.01 in. Hg (1016 hPa)
ob: KMWA 171745Z 25010KT 10SM SCT031 BKN048 31/24 A3001
cycle: 18

Station Type Date Time Source
KMWA TAF UTC NOAA

Error!

Example: see airport list